Time;durP1;ratioP1;P1;durP2;ratioP2;P2;SDS_P1;SDS_P2;PMS_P1;PMS_P2;Temp;Humidity;BMP_temperature;BMP_pressure;BME280_temperature;BME280_humidity;BME280_pressure;Samples;Min_cycle;Max_cycle;Signal;HPM_P1;HPM_P2
2021/11/26 00:01:57;;;;;;;19.17;12.53;;;5.10;99.90;;;;;;5005769;28;20277;-74
2021/11/26 00:04:24;;;;;;;18.27;11.00;;;5.10;99.90;;;;;;5006287;28;20248;-73
2021/11/26 00:06:51;;;;;;;16.20;11.87;;;5.10;99.90;;;;;;5005966;28;20209;-73
2021/11/26 00:09:18;;;;;;;20.90;11.90;;;5.10;99.90;;;;;;5006169;28;20255;-73
2021/11/26 00:11:44;;;;;;;15.83;11.43;;;5.10;99.90;;;;;;5006314;28;20233;-73
2021/11/26 00:14:16;;;;;;;16.63;11.13;;;5.10;99.90;;;;;;5006337;28;20263;-73
2021/11/26 00:16:45;;;;;;;16.00;11.13;;;5.10;99.90;;;;;;5005957;28;20229;-73
2021/11/26 00:19:12;;;;;;;16.13;11.83;;;5.10;99.90;;;;;;5006430;28;20244;-73
2021/11/26 00:21:42;;;;;;;18.07;11.33;;;5.10;99.90;;;;;;5006219;28;20209;-73
2021/11/26 00:24:12;;;;;;;15.93;10.50;;;5.10;99.90;;;;;;5005949;28;20237;-73
2021/11/26 00:26:40;;;;;;;17.70;11.20;;;5.10;99.90;;;;;;5005954;28;20236;-73
2021/11/26 00:29:07;;;;;;;20.40;11.57;;;5.10;99.90;;;;;;5005855;28;20273;-73
2021/11/26 00:31:34;;;;;;;15.67;10.93;;;5.10;99.90;;;;;;5006000;28;20315;-73
2021/11/26 00:34:03;;;;;;;15.50;10.60;;;5.10;99.90;;;;;;5005797;28;20864;-73
2021/11/26 00:36:29;;;;;;;15.83;10.47;;;5.10;99.90;;;;;;5005733;28;20284;-73
2021/11/26 00:38:56;;;;;;;17.10;10.83;;;5.10;99.90;;;;;;5005630;28;20248;-73
2021/11/26 00:41:23;;;;;;;17.50;10.43;;;5.10;99.90;;;;;;5005654;28;20211;-73
2021/11/26 00:43:51;;;;;;;17.33;11.27;;;5.10;99.90;;;;;;5006080;28;20636;-73
2021/11/26 00:46:19;;;;;;;16.90;10.10;;;5.10;99.90;;;;;;5005473;28;20274;-73
2021/11/26 00:48:46;;;;;;;16.27;10.67;;;5.20;99.90;;;;;;5005765;28;20255;-73
2021/11/26 00:51:15;;;;;;;14.77;10.17;;;5.10;99.90;;;;;;5005835;28;20213;-73
2021/11/26 00:53:42;;;;;;;16.47;10.30;;;5.10;99.90;;;;;;5005796;28;20300;-73
2021/11/26 00:56:09;;;;;;;15.93;10.07;;;5.10;99.90;;;;;;5005600;28;20210;-72
2021/11/26 00:58:36;;;;;;;16.17;9.57;;;5.10;99.90;;;;;;5005583;28;20300;-72
2021/11/26 01:01:03;;;;;;;15.30;9.80;;;5.10;99.90;;;;;;5005405;28;20301;-73
2021/11/26 01:03:30;;;;;;;12.40;9.30;;;5.10;99.90;;;;;;5005308;28;20728;-73
2021/11/26 01:05:58;;;;;;;14.07;9.70;;;5.00;99.90;;;;;;5005266;28;20292;-73
2021/11/26 01:08:26;;;;;;;14.40;9.77;;;5.10;99.90;;;;;;5005397;28;20209;-73
2021/11/26 01:10:54;;;;;;;11.80;8.63;;;5.00;99.90;;;;;;5005283;28;20718;-74
2021/11/26 01:13:21;;;;;;;16.07;9.67;;;5.00;99.90;;;;;;5005072;28;20278;-74
2021/11/26 01:15:49;;;;;;;14.10;8.93;;;5.00;99.90;;;;;;5005295;28;20214;-74
2021/11/26 01:18:16;;;;;;;13.33;8.93;;;5.00;99.90;;;;;;5005405;28;20213;-74
2021/11/26 01:20:43;;;;;;;14.73;9.30;;;5.00;99.90;;;;;;5005259;28;20343;-74
2021/11/26 01:23:11;;;;;;;16.93;10.10;;;5.00;99.90;;;;;;5005253;28;20316;-74
2021/11/26 01:25:40;;;;;;;15.27;9.47;;;5.00;99.90;;;;;;5005097;28;20300;-74
2021/11/26 01:28:08;;;;;;;17.50;9.33;;;5.00;99.90;;;;;;5005126;28;20668;-74
2021/11/26 01:30:39;;;;;;;14.07;8.87;;;5.00;99.90;;;;;;5005007;28;20714;-75
2021/11/26 01:33:08;;;;;;;14.90;9.33;;;5.00;99.90;;;;;;5005132;28;20284;-74
2021/11/26 01:35:36;;;;;;;10.70;8.33;;;5.10;99.90;;;;;;5005076;28;20214;-74
2021/11/26 01:38:04;;;;;;;15.50;8.87;;;5.00;99.90;;;;;;5005146;28;20212;-74
2021/11/26 01:40:31;;;;;;;15.70;9.70;;;5.10;99.90;;;;;;5005190;28;20237;-74
2021/11/26 01:43:00;;;;;;;14.83;8.83;;;5.00;99.90;;;;;;5005242;28;20206;-73
2021/11/26 01:45:27;;;;;;;11.67;8.77;;;5.00;99.90;;;;;;5004799;28;20237;-73
2021/11/26 01:47:54;;;;;;;18.20;8.93;;;5.00;99.90;;;;;;5007021;28;20220;-73
2021/11/26 01:50:23;;;;;;;13.53;9.00;;;5.10;99.90;;;;;;5008306;28;20243;-73
2021/11/26 01:52:53;;;;;;;13.73;8.73;;;5.10;99.90;;;;;;5008327;28;20211;-73
2021/11/26 01:55:20;;;;;;;13.37;8.33;;;5.10;99.90;;;;;;5008126;28;20210;-73
2021/11/26 01:57:48;;;;;;;14.53;8.57;;;5.10;99.90;;;;;;5008532;28;20326;-73
2021/11/26 02:00:20;;;;;;;16.00;8.57;;;5.10;99.90;;;;;;5007923;28;20656;-73
2021/11/26 02:02:47;;;;;;;14.63;9.17;;;5.10;99.90;;;;;;5007960;28;20630;-73
2021/11/26 02:05:13;;;;;;;14.47;8.87;;;5.10;99.90;;;;;;5008481;28;20294;-73
2021/11/26 02:07:40;;;;;;;14.10;9.57;;;5.10;99.90;;;;;;5008410;28;20206;-73
2021/11/26 02:10:08;;;;;;;16.20;9.40;;;5.10;99.90;;;;;;5007752;28;20324;-73
2021/11/26 02:12:35;;;;;;;14.97;9.53;;;5.10;99.90;;;;;;5007954;28;20216;-73
2021/11/26 02:15:03;;;;;;;14.27;9.47;;;5.10;99.90;;;;;;5007686;28;20216;-74
2021/11/26 02:17:31;;;;;;;15.10;9.50;;;5.10;99.90;;;;;;5008077;28;20216;-73
2021/11/26 02:20:00;;;;;;;17.13;9.80;;;5.10;99.90;;;;;;5007941;28;20230;-73
2021/11/26 02:22:27;;;;;;;13.57;10.10;;;5.10;99.90;;;;;;5007982;28;20639;-73
2021/11/26 02:24:54;;;;;;;13.83;9.73;;;5.10;99.90;;;;;;5007646;28;20881;-73
2021/11/26 02:27:21;;;;;;;18.33;10.20;;;5.10;99.90;;;;;;5007733;28;20329;-73
2021/11/26 02:29:54;;;;;;;17.13;10.87;;;5.00;99.90;;;;;;5007833;28;20275;-73
2021/11/26 02:32:21;;;;;;;15.77;10.13;;;5.00;99.90;;;;;;5007794;28;20598;-74
2021/11/26 02:34:48;;;;;;;16.63;10.50;;;5.00;99.90;;;;;;5007584;28;20722;-74
2021/11/26 02:37:16;;;;;;;20.00;10.23;;;5.00;99.90;;;;;;5007551;28;20209;-74
2021/11/26 02:39:43;;;;;;;17.63;11.20;;;5.00;99.90;;;;;;5007537;28;20678;-74
2021/11/26 02:42:10;;;;;;;16.87;10.43;;;5.10;99.90;;;;;;5007288;28;20346;-74
2021/11/26 02:44:37;;;;;;;24.03;11.20;;;5.00;99.90;;;;;;5006939;28;20298;-74
2021/11/26 02:47:07;;;;;;;16.90;10.60;;;5.00;99.90;;;;;;5007237;28;20387;-73
2021/11/26 02:49:33;;;;;;;16.30;10.87;;;5.00;99.90;;;;;;5007297;28;20233;-73
2021/11/26 02:52:00;;;;;;;15.93;10.20;;;5.10;99.90;;;;;;5007235;28;20221;-74
2021/11/26 02:54:29;;;;;;;14.73;10.47;;;5.10;99.90;;;;;;5007169;28;20303;-74
2021/11/26 02:56:56;;;;;;;17.40;10.93;;;5.00;99.90;;;;;;5007444;28;20300;-74
2021/11/26 02:59:22;;;;;;;16.50;10.30;;;5.10;99.90;;;;;;5007062;28;20213;-74
2021/11/26 03:01:49;;;;;;;13.73;10.53;;;5.10;99.90;;;;;;5006969;28;20285;-74
2021/11/26 03:04:16;;;;;;;16.83;10.90;;;5.10;99.90;;;;;;5006825;28;20256;-75
2021/11/26 03:06:43;;;;;;;20.07;11.00;;;5.10;99.90;;;;;;5006996;28;20720;-75
2021/11/26 03:09:10;;;;;;;17.30;10.40;;;5.10;99.90;;;;;;5007536;28;20624;-75
2021/11/26 03:11:38;;;;;;;18.60;11.23;;;5.10;99.90;;;;;;5007418;28;20233;-75
2021/11/26 03:14:05;;;;;;;16.97;10.47;;;5.10;99.90;;;;;;5006904;28;20304;-74
2021/11/26 03:16:32;;;;;;;14.23;10.43;;;5.00;99.90;;;;;;5007125;28;20659;-74
2021/11/26 03:18:59;;;;;;;17.97;11.13;;;5.00;99.90;;;;;;5007120;28;20209;-74
2021/11/26 03:21:26;;;;;;;15.33;10.23;;;5.00;99.90;;;;;;5007090;28;20305;-75
2021/11/26 03:23:53;;;;;;;19.63;11.53;;;5.00;99.90;;;;;;5007005;28;20237;-75
2021/11/26 03:26:20;;;;;;;17.67;9.90;;;5.10;99.90;;;;;;5006879;28;20929;-75
2021/11/26 03:28:48;;;;;;;22.87;11.70;;;5.10;99.90;;;;;;5006709;28;20205;-75
2021/11/26 03:38:01;;;;;;;13.30;9.30;;;5.00;99.90;;;;;;5012980;28;20200;-75
2021/11/26 03:40:29;;;;;;;16.40;9.70;;;5.00;99.90;;;;;;5026232;28;20573;-75
2021/11/26 03:42:58;;;;;;;16.23;9.73;;;5.10;99.90;;;;;;5025970;28;20692;-74
2021/11/26 03:48:49;;;;;;;16.70;10.57;;;5.00;99.90;;;;;;5009107;28;20201;-74
2021/11/26 03:51:16;;;;;;;22.27;10.33;;;5.10;99.90;;;;;;5006486;28;20771;-74
2021/11/26 03:53:46;;;;;;;15.77;9.80;;;5.10;99.90;;;;;;5006332;28;20307;-73
2021/11/26 03:56:13;;;;;;;17.27;10.40;;;5.00;99.90;;;;;;5006212;28;20212;-81
2021/11/26 03:58:40;;;;;;;16.70;9.70;;;5.00;99.90;;;;;;5006619;28;20255;-72
2021/11/26 04:01:07;;;;;;;17.37;10.00;;;5.00;99.90;;;;;;5005760;28;20727;-72
2021/11/26 04:03:33;;;;;;;12.30;9.10;;;5.00;99.90;;;;;;5006182;28;20235;-73
2021/11/26 04:06:02;;;;;;;17.77;8.50;;;5.00;99.90;;;;;;5013682;28;20239;-72
2021/11/26 04:08:29;;;;;;;15.57;9.13;;;5.00;99.90;;;;;;5017797;28;20308;-72
2021/11/26 04:10:57;;;;;;;12.60;8.97;;;5.10;99.90;;;;;;5021243;28;20228;-72
2021/11/26 04:13:24;;;;;;;15.40;9.03;;;5.10;99.90;;;;;;5022262;28;20301;-72
2021/11/26 04:15:52;;;;;;;15.17;8.80;;;5.00;99.90;;;;;;5022015;28;20252;-72
2021/11/26 04:18:19;;;;;;;14.80;9.67;;;5.00;99.90;;;;;;5022770;28;20215;-72
2021/11/26 04:20:45;;;;;;;13.70;8.40;;;5.00;99.90;;;;;;5022386;28;20747;-77
2021/11/26 04:23:14;;;;;;;14.60;8.80;;;5.00;99.90;;;;;;5022068;28;20268;-76
2021/11/26 04:25:41;;;;;;;14.17;9.40;;;5.10;99.90;;;;;;5022246;28;20619;-76
2021/11/26 04:28:08;;;;;;;14.20;9.07;;;5.10;99.90;;;;;;5021903;28;20209;-72
2021/11/26 04:30:35;;;;;;;15.00;8.13;;;5.20;99.90;;;;;;5021490;28;20677;-72
2021/11/26 04:33:02;;;;;;;16.20;8.90;;;5.10;99.90;;;;;;5022209;28;20288;-72
2021/11/26 04:35:29;;;;;;;12.80;8.67;;;5.10;99.90;;;;;;5022033;28;20300;-72
2021/11/26 04:37:56;;;;;;;15.60;9.07;;;5.10;99.90;;;;;;5021882;28;20375;-72
2021/11/26 04:40:25;;;;;;;14.60;8.40;;;5.10;99.90;;;;;;5021853;28;20678;-72
2021/11/26 04:42:51;;;;;;;20.77;9.33;;;5.10;99.90;;;;;;5021987;28;20290;-72
2021/11/26 04:45:19;;;;;;;15.83;9.07;;;5.00;99.90;;;;;;5021556;28;20782;-72
2021/11/26 04:47:46;;;;;;;14.30;8.77;;;5.00;99.90;;;;;;5021481;28;20683;-72
2021/11/26 04:50:15;;;;;;;14.43;8.67;;;5.00;99.90;;;;;;5021924;28;20243;-72
2021/11/26 04:52:42;;;;;;;13.50;9.13;;;5.00;99.90;;;;;;5021531;28;20381;-72
2021/11/26 04:55:11;;;;;;;17.37;8.43;;;5.00;99.90;;;;;;5021789;28;20252;-72
2021/11/26 04:57:40;;;;;;;16.13;7.70;;;5.00;99.90;;;;;;5019113;28;20221;-72
2021/11/26 05:00:09;;;;;;;13.30;8.10;;;5.00;99.90;;;;;;5005384;28;20356;-73
2021/11/26 05:02:36;;;;;;;18.53;8.63;;;5.00;99.90;;;;;;5004509;28;20233;-72
2021/11/26 05:05:03;;;;;;;14.57;7.53;;;5.00;99.90;;;;;;5004542;28;20253;-72
2021/11/26 05:07:30;;;;;;;12.63;7.93;;;5.00;99.90;;;;;;5004837;28;20271;-72
2021/11/26 05:09:59;;;;;;;16.47;7.77;;;5.00;99.90;;;;;;5004356;28;20262;-72
2021/11/26 05:12:29;;;;;;;12.60;7.63;;;5.00;99.90;;;;;;5004744;28;20676;-72
2021/11/26 05:14:58;;;;;;;16.40;7.57;;;5.00;99.90;;;;;;5004338;28;20554;-72
2021/11/26 05:17:24;;;;;;;12.37;7.30;;;5.00;99.90;;;;;;5004466;28;20733;-71
2021/11/26 05:19:51;;;;;;;9.87;7.10;;;5.00;99.90;;;;;;5004417;28;20684;-72
2021/11/26 05:22:18;;;;;;;13.37;7.17;;;5.00;99.90;;;;;;5005483;28;20273;-72
2021/11/26 05:24:45;;;;;;;13.00;7.50;;;5.00;99.90;;;;;;5007577;28;20272;-72
2021/11/26 05:27:12;;;;;;;11.57;8.03;;;5.00;99.90;;;;;;5008187;28;20252;-72
2021/11/26 05:29:39;;;;;;;11.53;7.33;;;5.00;99.90;;;;;;5011511;28;20703;-72
2021/11/26 05:32:09;;;;;;;18.10;8.43;;;5.00;99.90;;;;;;5018612;28;20316;-72
2021/11/26 05:34:36;;;;;;;13.07;6.87;;;5.00;99.90;;;;;;5007418;28;20734;-72
2021/11/26 05:37:03;;;;;;;19.67;8.50;;;5.00;99.90;;;;;;5007666;28;20295;-71
2021/11/26 05:39:30;;;;;;;17.70;7.97;;;5.00;99.90;;;;;;5007725;28;20200;-72
2021/11/26 05:41:57;;;;;;;15.33;7.87;;;5.00;99.90;;;;;;5007191;28;20247;-72
2021/11/26 05:44:24;;;;;;;11.60;7.90;;;5.00;99.90;;;;;;5007409;28;20639;-72
2021/11/26 05:46:51;;;;;;;11.70;7.80;;;5.00;99.90;;;;;;5007308;28;20204;-72
2021/11/26 05:49:20;;;;;;;13.93;8.80;;;5.00;99.90;;;;;;5007090;28;20928;-72
2021/11/26 05:51:47;;;;;;;16.20;8.60;;;5.00;99.90;;;;;;5007058;28;20270;-72
2021/11/26 05:54:14;;;;;;;14.43;8.80;;;5.10;99.90;;;;;;5006999;28;20297;-72
2021/11/26 05:56:41;;;;;;;18.47;9.37;;;5.10;99.90;;;;;;5007384;28;20292;-72
2021/11/26 05:59:08;;;;;;;13.97;8.97;;;5.10;99.90;;;;;;5007133;28;20239;-72
2021/11/26 06:01:35;;;;;;;15.70;9.27;;;5.10;99.90;;;;;;5012358;28;20232;-72
2021/11/26 06:04:02;;;;;;;14.73;9.30;;;5.10;99.90;;;;;;5017906;28;20232;-72
2021/11/26 06:06:30;;;;;;;18.07;9.03;;;5.10;99.90;;;;;;5017756;28;20258;-72
2021/11/26 06:08:57;;;;;;;13.00;8.53;;;5.10;99.90;;;;;;5016226;28;20198;-72
2021/11/26 06:11:24;;;;;;;16.23;8.77;;;5.00;99.90;;;;;;5016764;28;20252;-72
2021/11/26 06:13:51;;;;;;;15.80;8.53;;;5.00;99.90;;;;;;5014552;28;20198;-72
2021/11/26 06:16:17;;;;;;;15.83;8.87;;;5.00;99.90;;;;;;5009344;28;20204;-72
2021/11/26 06:18:44;;;;;;;14.03;8.70;;;5.00;99.90;;;;;;5016829;28;20607;-72
2021/11/26 06:21:11;;;;;;;15.63;9.53;;;5.00;99.90;;;;;;5012428;28;20664;-72
2021/11/26 06:23:40;;;;;;;13.90;8.20;;;5.00;99.90;;;;;;5017267;28;20232;-72
2021/11/26 06:26:08;;;;;;;15.77;7.83;;;4.90;99.90;;;;;;5014442;28;20636;-72
2021/11/26 06:28:35;;;;;;;11.93;6.97;;;5.00;99.90;;;;;;5015300;28;20205;-70
2021/11/26 06:31:02;;;;;;;12.30;7.63;;;5.00;99.90;;;;;;5023469;28;20649;-70
2021/11/26 06:33:28;;;;;;;17.03;7.57;;;5.10;99.90;;;;;;5015178;28;20208;-70
2021/11/26 06:35:55;;;;;;;11.70;7.17;;;5.10;99.90;;;;;;5017327;28;20228;-72
2021/11/26 06:38:22;;;;;;;12.37;7.70;;;5.10;99.90;;;;;;5017410;28;20593;-72
2021/11/26 06:40:51;;;;;;;11.83;7.10;;;5.00;99.90;;;;;;5016918;28;20293;-72
2021/11/26 06:43:18;;;;;;;11.33;6.93;;;5.00;99.90;;;;;;5006549;28;20286;-72
2021/11/26 06:45:45;;;;;;;12.23;6.60;;;5.00;99.90;;;;;;5013483;28;20244;-73
2021/11/26 06:48:12;;;;;;;12.93;7.63;;;5.00;99.90;;;;;;5014650;28;20206;-73
2021/11/26 06:50:39;;;;;;;11.87;8.03;;;4.90;99.90;;;;;;5019389;28;20203;-73
2021/11/26 06:53:06;;;;;;;10.70;6.60;;;4.90;99.90;;;;;;5016462;28;20732;-73
2021/11/26 06:55:34;;;;;;;14.37;7.57;;;4.90;99.90;;;;;;5017417;28;20732;-73
2021/11/26 06:58:02;;;;;;;12.73;7.53;;;4.90;99.90;;;;;;5014898;28;20300;-73
2021/11/26 07:00:32;;;;;;;12.17;7.17;;;4.90;99.90;;;;;;5006253;28;20771;-73
2021/11/26 07:02:58;;;;;;;11.63;7.00;;;4.90;99.90;;;;;;5006132;28;20275;-74
2021/11/26 07:05:25;;;;;;;15.10;7.50;;;4.90;99.90;;;;;;5006455;28;20237;-74
2021/11/26 07:07:52;;;;;;;10.00;6.80;;;4.90;99.90;;;;;;5006407;28;21004;-74
2021/11/26 07:10:19;;;;;;;12.93;7.13;;;5.00;99.90;;;;;;5007167;28;20289;-72
2021/11/26 07:12:46;;;;;;;9.87;7.10;;;4.90;99.90;;;;;;5014359;28;20733;-72
2021/11/26 07:15:16;;;;;;;17.27;6.93;;;4.90;99.90;;;;;;5013963;28;20288;-72
2021/11/26 07:17:44;;;;;;;9.40;6.73;;;4.90;99.90;;;;;;5011604;28;20338;-73
2021/11/26 07:20:12;;;;;;;13.43;6.93;;;4.90;99.90;;;;;;5022588;28;20216;-72
2021/11/26 07:22:39;;;;;;;13.97;6.73;;;4.90;99.90;;;;;;5013616;28;20313;-72
2021/11/26 07:25:07;;;;;;;11.80;6.73;;;4.90;99.90;;;;;;5015188;28;20315;-72
2021/11/26 07:27:34;;;;;;;11.53;6.70;;;4.90;99.90;;;;;;5016771;28;20280;-73
2021/11/26 07:30:01;;;;;;;11.03;6.47;;;4.90;99.90;;;;;;5014358;28;20237;-73
2021/11/26 07:32:29;;;;;;;12.17;6.90;;;4.90;99.90;;;;;;5015228;28;20221;-73
2021/11/26 07:34:56;;;;;;;14.00;6.87;;;4.90;99.90;;;;;;5015931;28;20204;-72
2021/11/26 07:37:25;;;;;;;11.83;6.33;;;4.90;99.90;;;;;;5014597;28;20582;-73
2021/11/26 07:39:52;;;;;;;15.07;6.33;;;4.90;99.90;;;;;;5014372;28;20201;-72
2021/11/26 07:42:19;;;;;;;10.73;6.47;;;4.90;99.90;;;;;;5016271;28;20201;-73
2021/11/26 07:44:46;;;;;;;10.57;5.90;;;4.90;99.90;;;;;;5013936;28;20709;-73
2021/11/26 07:47:16;;;;;;;11.67;6.17;;;5.00;99.90;;;;;;5013969;28;20209;-73
2021/11/26 07:49:46;;;;;;;10.40;5.97;;;5.00;99.90;;;;;;5010779;28;20208;-73
2021/11/26 07:52:14;;;;;;;12.87;6.47;;;5.00;99.90;;;;;;5020047;28;20221;-72
2021/11/26 07:54:41;;;;;;;9.63;6.20;;;5.10;99.90;;;;;;5016970;28;20225;-72
2021/11/26 07:57:08;;;;;;;10.77;6.00;;;5.10;99.90;;;;;;5014634;28;20241;-73
2021/11/26 07:59:35;;;;;;;13.30;6.00;;;5.10;99.90;;;;;;5015765;28;20225;-73
2021/11/26 08:02:02;;;;;;;14.87;6.90;;;5.10;99.90;;;;;;5025008;28;20243;-72
2021/11/26 08:04:29;;;;;;;12.27;6.30;;;5.10;99.90;;;;;;5025065;28;20243;-72
2021/11/26 08:06:57;;;;;;;9.17;5.93;;;5.10;99.90;;;;;;5025268;28;20213;-73
2021/11/26 08:09:24;;;;;;;9.30;5.57;;;5.10;99.90;;;;;;5025452;28;20217;-72
2021/11/26 08:11:53;;;;;;;14.20;6.43;;;5.10;99.90;;;;;;5024152;28;20295;-72
2021/11/26 08:14:21;;;;;;;8.80;5.63;;;5.10;99.90;;;;;;5016533;28;20568;-73
2021/11/26 08:16:50;;;;;;;11.93;6.23;;;5.20;99.90;;;;;;5013767;28;20203;-73
2021/11/26 08:19:17;;;;;;;12.20;6.17;;;5.20;99.90;;;;;;5013625;28;20213;-73
2021/11/26 08:21:44;;;;;;;10.67;6.30;;;5.20;99.90;;;;;;5014900;28;20285;-72
2021/11/26 08:24:13;;;;;;;9.97;6.10;;;5.30;99.90;;;;;;5015458;28;20749;-73
2021/11/26 08:26:41;;;;;;;11.73;6.40;;;5.30;99.90;;;;;;5005250;28;20293;-73
2021/11/26 08:29:09;;;;;;;9.90;6.23;;;5.40;99.90;;;;;;5013158;28;20254;-73
2021/11/26 08:31:36;;;;;;;10.70;6.60;;;5.50;99.90;;;;;;5015901;28;20722;-73
2021/11/26 08:34:03;;;;;;;13.53;6.60;;;5.40;99.90;;;;;;5015080;28;20211;-73
2021/11/26 08:36:30;;;;;;;12.63;6.83;;;5.40;99.90;;;;;;5015442;28;20204;-73
2021/11/26 08:38:58;;;;;;;10.37;6.13;;;5.40;99.90;;;;;;5015778;28;20296;-73
2021/11/26 08:41:27;;;;;;;12.13;7.27;;;5.50;99.90;;;;;;5013335;28;20559;-73
2021/11/26 08:43:55;;;;;;;9.47;6.27;;;5.50;99.90;;;;;;5012672;28;20319;-74
2021/11/26 08:46:22;;;;;;;18.50;6.67;;;5.50;99.90;;;;;;5021733;28;20244;-73
2021/11/26 08:48:49;;;;;;;16.83;6.57;;;5.70;99.90;;;;;;5024207;28;20196;-73
2021/11/26 08:51:18;;;;;;;9.80;6.57;;;5.70;99.90;;;;;;5017377;28;20232;-72
2021/11/26 08:53:46;;;;;;;11.83;7.23;;;5.80;99.90;;;;;;5015552;28;20254;-73
2021/11/26 08:56:14;;;;;;;22.80;11.00;;;5.90;99.90;;;;;;5014098;28;20206;-73
2021/11/26 08:58:45;;;;;;;11.43;7.37;;;5.80;99.90;;;;;;5013601;28;21221;-73
2021/11/26 09:01:13;;;;;;;10.30;7.30;;;5.70;99.90;;;;;;5014615;28;20196;-73
2021/11/26 09:03:40;;;;;;;10.83;6.33;;;5.80;99.90;;;;;;5015148;28;20193;-73
2021/11/26 09:06:06;;;;;;;9.67;6.30;;;5.80;99.90;;;;;;5014034;28;20300;-73
2021/11/26 09:08:33;;;;;;;14.00;6.70;;;5.80;99.90;;;;;;5016877;28;20303;-73
2021/11/26 09:11:00;;;;;;;10.33;6.33;;;5.80;99.90;;;;;;5012418;28;20204;-73
2021/11/26 09:13:27;;;;;;;11.23;6.27;;;5.80;99.90;;;;;;5012547;28;20313;-73
2021/11/26 09:15:56;;;;;;;11.20;6.40;;;5.80;99.90;;;;;;5014792;28;20202;-73
2021/11/26 09:18:23;;;;;;;11.90;6.33;;;5.90;99.90;;;;;;5004787;28;20423;-73
2021/11/26 09:20:52;;;;;;;8.33;5.73;;;5.90;99.90;;;;;;5012319;28;20312;-73
2021/11/26 09:23:20;;;;;;;11.80;6.07;;;5.80;99.90;;;;;;5013237;28;20332;-72
2021/11/26 09:25:48;;;;;;;10.00;5.43;;;5.80;99.90;;;;;;5014206;28;20206;-73
2021/11/26 09:28:16;;;;;;;11.60;6.00;;;5.80;99.90;;;;;;5015174;28;20643;-73
2021/11/26 09:30:43;;;;;;;10.23;6.30;;;5.90;99.90;;;;;;5015373;28;20201;-73
2021/11/26 09:33:12;;;;;;;11.47;6.63;;;6.00;99.90;;;;;;5013975;28;20320;-73
2021/11/26 09:35:40;;;;;;;8.70;6.13;;;6.00;99.90;;;;;;5013293;28;20201;-73
2021/11/26 09:38:06;;;;;;;11.90;5.80;;;6.00;99.90;;;;;;5014342;28;20629;-73
2021/11/26 09:40:34;;;;;;;9.80;6.33;;;6.00;99.90;;;;;;5014731;28;20233;-73
2021/11/26 09:43:02;;;;;;;9.07;5.83;;;6.00;99.90;;;;;;5012944;28;20230;-73
2021/11/26 09:45:32;;;;;;;10.17;6.63;;;6.10;99.90;;;;;;5012730;28;20541;-73
2021/11/26 09:47:59;;;;;;;10.93;7.27;;;6.10;99.90;;;;;;5012424;28;20731;-73
2021/11/26 09:50:32;;;;;;;9.63;6.77;;;6.20;99.90;;;;;;5013427;28;20194;-73
2021/11/26 09:53:09;;;;;;;10.20;6.90;;;6.30;99.90;;;;;;5012273;28;20258;-73
2021/11/26 09:55:36;;;;;;;10.13;6.70;;;6.30;99.90;;;;;;5014736;28;20201;-73
2021/11/26 09:58:03;;;;;;;11.37;6.63;;;6.30;99.90;;;;;;5012747;28;20415;-73
2021/11/26 10:00:31;;;;;;;10.13;6.70;;;6.40;99.90;;;;;;5007101;28;20288;-73
2021/11/26 10:02:59;;;;;;;10.20;6.87;;;6.40;99.90;;;;;;5023349;28;20237;-73
2021/11/26 10:05:33;;;;;;;11.87;7.07;;;6.40;99.90;;;;;;5006337;28;20202;-72
2021/11/26 10:08:00;;;;;;;8.77;6.37;;;6.30;99.90;;;;;;5015972;28;20189;-73
2021/11/26 10:10:31;;;;;;;10.27;7.33;;;6.10;99.90;;;;;;5015956;28;20207;-73
2021/11/26 10:13:03;;;;;;;9.60;5.97;;;6.20;99.90;;;;;;5024140;28;20245;-73
2021/11/26 10:15:32;;;;;;;10.10;6.50;;;6.10;99.90;;;;;;5017251;28;20544;-71
2021/11/26 10:18:11;;;;;;;7.57;6.60;;;6.20;99.90;;;;;;5023838;28;20217;-73
2021/11/26 10:20:54;;;;;;;9.77;6.57;;;6.30;99.90;;;;;;5021593;28;21127;-73
2021/11/26 10:23:22;;;;;;;12.30;6.97;;;6.40;99.90;;;;;;5018145;28;20252;-71
2021/11/26 10:25:49;;;;;;;12.13;7.20;;;6.40;99.90;;;;;;5011210;28;20292;-71
2021/11/26 10:28:17;;;;;;;9.37;6.30;;;6.40;99.90;;;;;;5010312;28;20206;-73
2021/11/26 10:30:47;;;;;;;7.87;6.10;;;6.40;99.90;;;;;;5007080;28;20292;-73
2021/11/26 10:33:17;;;;;;;8.57;6.53;;;6.40;99.90;;;;;;5009456;28;20310;-73
2021/11/26 10:35:47;;;;;;;12.43;6.77;;;6.40;99.90;;;;;;5015513;28;20201;-73
2021/11/26 10:38:17;;;;;;;10.97;6.67;;;6.40;99.90;;;;;;5021268;28;20301;-73
2021/11/26 10:40:47;;;;;;;11.10;7.17;;;6.40;99.90;;;;;;5006559;28;20286;-73
2021/11/26 10:43:16;;;;;;;10.43;6.80;;;6.40;99.90;;;;;;5006459;28;20230;-73
2021/11/26 11:00:12;;;;;;;11.17;7.53;;;6.30;99.90;;;;;;5016701;28;20690;-73
2021/11/26 11:02:41;;;;;;;13.47;8.33;;;6.30;99.90;;;;;;5014169;28;20285;-73
2021/11/26 11:05:12;;;;;;;10.60;8.17;;;6.30;99.90;;;;;;5013936;28;20730;-73
2021/11/26 11:07:45;;;;;;;11.30;8.33;;;6.30;99.90;;;;;;5017081;28;20197;-73
2021/11/26 11:10:23;;;;;;;12.20;8.43;;;6.30;99.90;;;;;;5014879;28;20197;-73
2021/11/26 11:12:50;;;;;;;12.00;9.00;;;6.30;99.90;;;;;;5015192;28;20281;-73
2021/11/26 11:15:18;;;;;;;15.37;8.30;;;6.40;99.90;;;;;;5013219;28;20244;-73
2021/11/26 11:17:47;;;;;;;12.17;8.57;;;6.40;99.90;;;;;;5016130;28;20663;-73
2021/11/26 11:20:16;;;;;;;12.10;8.70;;;6.40;99.90;;;;;;5015463;28;20312;-73
2021/11/26 11:22:46;;;;;;;13.30;8.87;;;6.40;99.90;;;;;;5014891;28;20225;-73
2021/11/26 11:25:21;;;;;;;12.03;8.63;;;6.50;99.90;;;;;;5015307;28;20269;-73
2021/11/26 11:27:50;;;;;;;11.80;8.47;;;6.50;99.90;;;;;;5005949;28;20557;-73
2021/11/26 11:30:17;;;;;;;15.83;10.43;;;6.60;99.90;;;;;;5019804;28;20225;-73
2021/11/26 11:32:44;;;;;;;12.13;9.03;;;6.60;99.90;;;;;;5005576;28;20312;-73
2021/11/26 11:35:12;;;;;;;12.83;8.67;;;6.60;99.90;;;;;;5010786;28;20691;-73
2021/11/26 11:37:39;;;;;;;12.33;8.50;;;6.70;99.90;;;;;;5016925;28;20201;-73
2021/11/26 11:40:09;;;;;;;12.53;9.07;;;6.70;99.90;;;;;;5015708;28;20291;-73
2021/11/26 11:42:39;;;;;;;12.30;8.87;;;6.80;99.90;;;;;;5016341;28;20217;-73
2021/11/26 11:45:10;;;;;;;14.90;9.10;;;7.00;99.90;;;;;;5005667;28;20778;-73
2021/11/26 11:47:44;;;;;;;11.73;8.47;;;7.10;99.90;;;;;;5011366;28;20229;-73
2021/11/26 11:50:14;;;;;;;13.63;9.37;;;7.20;99.90;;;;;;5014941;28;20281;-73
2021/11/26 11:52:44;;;;;;;13.27;9.70;;;7.40;99.90;;;;;;5013863;28;20279;-73
2021/11/26 11:55:26;;;;;;;11.40;9.10;;;7.60;99.90;;;;;;5015376;28;20190;-73
2021/11/26 11:57:56;;;;;;;11.77;8.83;;;7.70;99.90;;;;;;5005295;28;20256;-73
2021/11/26 12:00:24;;;;;;;9.17;7.77;;;7.70;99.90;;;;;;5014655;28;20282;-73
2021/11/26 12:02:51;;;;;;;11.60;8.53;;;7.80;99.90;;;;;;5015130;28;20335;-73
2021/11/26 12:05:25;;;;;;;10.60;8.40;;;7.90;99.90;;;;;;5016248;28;20223;-73
2021/11/26 12:08:04;;;;;;;11.13;8.30;;;8.00;99.90;;;;;;5015486;28;20284;-73
2021/11/26 12:10:46;;;;;;;9.40;8.03;;;8.00;99.90;;;;;;5004848;28;20683;-73
2021/11/26 12:13:29;;;;;;;10.60;7.80;;;8.00;99.90;;;;;;5024723;28;20228;-73
2021/11/26 12:16:09;;;;;;;13.33;8.73;;;8.10;99.90;;;;;;5005367;28;20251;-73
2021/11/26 12:18:38;;;;;;;9.83;7.80;;;8.10;99.90;;;;;;5015648;28;20232;-73
2021/11/26 12:21:09;;;;;;;9.10;8.13;;;8.10;99.90;;;;;;5012123;28;20275;-73
2021/11/26 12:23:49;;;;;;;10.60;7.60;;;8.10;99.90;;;;;;5018324;28;20731;-73
2021/11/26 12:26:21;;;;;;;14.20;7.73;;;8.20;99.90;;;;;;5011540;28;20209;-73
2021/11/26 12:28:52;;;;;;;9.47;7.70;;;8.30;99.90;;;;;;5017016;28;20201;-73
2021/11/26 12:31:22;;;;;;;11.03;7.30;;;8.40;99.90;;;;;;5018841;28;20224;-71
2021/11/26 12:34:02;;;;;;;10.00;7.20;;;8.50;99.90;;;;;;5016225;28;20217;-71
2021/11/26 12:36:44;;;;;;;8.60;6.50;;;8.60;99.90;;;;;;5004712;28;20700;-73
2021/11/26 12:39:16;;;;;;;9.43;6.63;;;8.70;99.90;;;;;;5013060;28;20265;-73
2021/11/26 12:41:46;;;;;;;9.83;6.73;;;8.70;99.90;;;;;;5012817;28;20769;-71
2021/11/26 12:44:20;;;;;;;7.43;6.17;;;8.80;99.90;;;;;;5015724;28;20209;-71
2021/11/26 12:46:47;;;;;;;9.03;5.37;;;8.90;99.90;;;;;;5004915;28;20200;-73
2021/11/26 12:52:10;;;;;;;7.73;5.83;;;8.80;99.90;;;;;;5004201;28;20560;-71
2021/11/26 12:54:40;;;;;;;8.77;5.80;;;8.80;99.90;;;;;;5004512;28;20304;-72
2021/11/26 12:57:11;;;;;;;9.67;6.10;;;8.60;99.90;;;;;;5004689;28;20266;-71
2021/11/26 12:59:41;;;;;;;7.40;5.30;;;8.40;99.90;;;;;;5012659;28;20292;-71
2021/11/26 13:02:10;;;;;;;6.17;5.00;;;8.20;99.90;;;;;;5023455;28;20270;-71
2021/11/26 13:04:47;;;;;;;7.93;5.50;;;8.10;99.90;;;;;;5023951;28;20208;-72
2021/11/26 13:07:14;;;;;;;9.37;5.30;;;7.90;99.90;;;;;;5024080;28;20711;-73
2021/11/26 13:09:47;;;;;;;7.13;5.07;;;7.90;99.90;;;;;;5024783;28;20240;-73
2021/11/26 13:12:17;;;;;;;5.40;4.50;;;7.90;99.90;;;;;;5024771;28;20257;-85
2021/11/26 13:14:50;;;;;;;8.10;5.50;;;7.80;99.90;;;;;;5025046;28;20260;-83
2021/11/26 13:17:19;;;;;;;6.90;5.30;;;7.80;99.90;;;;;;5025496;28;20201;-79
2021/11/26 13:19:57;;;;;;;6.87;4.93;;;7.70;99.90;;;;;;5024594;28;20266;-72